Time;durP1;ratioP1;P1;durP2;ratioP2;P2;SDS_P1;SDS_P2;PMS_P1;PMS_P2;Temp;Humidity;BMP_temperature;BMP_pressure;BME280_temperature;BME280_humidity;BME280_pressure;Samples;Min_cycle;Max_cycle;Signal;HPM_P1;HPM_P2
2022/06/01 00:01:45;;;;;;;3.13;0.95;;;;;;;21.73;41.93;101079.94;5048424;28;20067;-38
2022/06/01 00:04:11;;;;;;;0.88;0.88;;;;;;;21.74;41.93;101080.84;5050127;28;20134;-46
2022/06/01 00:06:36;;;;;;;0.68;0.68;;;;;;;21.74;42.18;101080.84;5048280;28;20473;-37
2022/06/01 00:09:02;;;;;;;1.13;1.02;;;;;;;21.74;41.93;101080.84;5049189;28;20393;-38
2022/06/01 00:11:28;;;;;;;3.15;0.90;;;;;;;21.73;42.08;101076.41;5050280;28;20047;-40
2022/06/01 00:13:53;;;;;;;2.40;1.00;;;;;;;21.74;42.11;101083.44;5057478;28;20033;-40
2022/06/01 00:16:18;;;;;;;0.70;0.70;;;;;;;21.74;41.77;101080.84;5049812;28;20017;-37
2022/06/01 00:18:44;;;;;;;0.75;0.75;;;;;;;21.75;41.94;101072.09;5051972;28;20485;-38
2022/06/01 00:21:09;;;;;;;1.02;0.90;;;;;;;21.74;42.07;101080.84;5052702;28;20025;-38
2022/06/01 00:23:36;;;;;;;0.77;0.77;;;;;;;21.73;41.64;101079.94;5055947;28;20072;-40
2022/06/01 00:26:02;;;;;;;3.92;1.48;;;;;;;21.72;42.12;101072.94;5053098;28;20051;-38
2022/06/01 00:28:27;;;;;;;0.70;0.70;;;;;;;21.73;42.03;101084.28;5046647;28;20040;-41
2022/06/01 00:30:54;;;;;;;0.85;0.85;;;;;;;21.72;42.17;101074.66;5052901;28;20373;-39
2022/06/01 00:33:19;;;;;;;0.88;0.73;;;;;;;21.73;42.11;101073.81;5066345;28;20033;-38
2022/06/01 00:35:44;;;;;;;1.05;1.05;;;;;;;21.73;42.03;101071.19;5068508;28;20040;-39
2022/06/01 00:38:10;;;;;;;2.75;1.23;;;;;;;21.73;42.23;101068.56;5050882;28;20499;-39
2022/06/01 00:40:36;;;;;;;1.50;0.77;;;;;;;21.72;42.16;101072.03;5051758;28;20112;-39
2022/06/01 00:43:23;;;;;;;0.85;0.85;;;;;;;21.72;42.24;101074.66;5036755;28;20028;-38
2022/06/01 00:45:48;;;;;;;1.58;1.13;;;;;;;21.74;42.29;101075.59;5036649;28;20045;-39
2022/06/01 00:48:16;;;;;;;0.65;0.65;;;;;;;21.73;42.18;101068.56;5051709;28;20525;-37
2022/06/01 00:50:42;;;;;;;1.40;0.85;;;;;;;21.73;42.14;101063.31;5049671;28;20040;-40
2022/06/01 00:53:11;;;;;;;2.30;0.98;;;;;;;21.72;42.18;101066.78;5053966;28;20176;-38
2022/06/01 00:55:56;;;;;;;0.70;0.70;;;;;;;21.73;42.36;101063.31;5036430;28;20063;-40
2022/06/01 00:58:31;;;;;;;0.90;0.90;;;;;;;21.72;42.25;101061.56;5018947;28;20044;-37
2022/06/01 01:00:58;;;;;;;0.80;0.80;;;;;;;21.71;42.19;101059.78;5036919;28;20025;-40
2022/06/01 01:03:28;;;;;;;2.47;0.90;;;;;;;21.72;41.83;101061.56;5036056;28;20033;-39
2022/06/01 01:06:18;;;;;;;2.42;0.65;;;;;;;21.71;42.00;101057.19;5036585;28;20029;-38
2022/06/01 01:08:46;;;;;;;3.00;0.88;;;;;;;21.71;42.23;101059.78;5045711;28;20116;-40
2022/06/01 01:11:12;;;;;;;0.82;0.70;;;;;;;21.71;42.10;101057.19;5024246;28;20040;-39
2022/06/01 01:13:40;;;;;;;1.00;0.93;;;;;;;21.71;42.42;101054.56;5040551;28;20064;-38
2022/06/01 01:16:06;;;;;;;2.40;0.80;;;;;;;21.70;41.96;101052.81;5012674;28;20552;-39
2022/06/01 01:18:38;;;;;;;0.75;0.75;;;;;;;21.71;42.28;101054.56;5052736;28;20103;-41
2022/06/01 01:21:37;;;;;;;1.08;0.88;;;;;;;21.71;41.81;101054.56;5050150;28;20025;-38
2022/06/01 01:24:15;;;;;;;0.70;0.70;;;;;;;21.70;42.00;101052.81;5053679;28;20025;-38
2022/06/01 01:26:46;;;;;;;0.77;0.77;;;;;;;21.70;42.26;101050.19;5055638;28;20033;-37
2022/06/01 01:29:14;;;;;;;0.88;0.88;;;;;;;21.71;42.16;101049.31;5045443;28;20432;-41
2022/06/01 01:31:40;;;;;;;1.13;0.90;;;;;;;21.69;41.95;101046.69;5051201;28;20036;-39
2022/06/01 01:34:06;;;;;;;2.42;1.10;;;;;;;21.70;41.78;101047.56;5048881;28;20047;-37
2022/06/01 01:36:34;;;;;;;0.55;0.55;;;;;;;21.70;41.93;101047.56;5033456;28;20064;-42
2022/06/01 01:39:09;;;;;;;0.90;0.82;;;;;;;21.69;42.16;101046.69;5035790;28;20029;-38
2022/06/01 01:41:39;;;;;;;;;;;;;;;21.69;42.10;101041.44;5036442;28;20059;-37
2022/06/01 01:44:29;;;;;;;1.08;0.73;;;;;;;21.70;41.99;101037.06;5045786;28;19916;-40
2022/06/01 01:46:56;;;;;;;0.60;0.60;;;;;;;21.70;42.12;101031.81;5053071;28;20045;-39
2022/06/01 01:49:25;;;;;;;0.70;0.70;;;;;;;21.68;41.85;101031.84;5066512;28;20036;-38
2022/06/01 01:51:53;;;;;;;0.70;0.70;;;;;;;21.69;42.23;101030.06;5035017;28;20500;-38
2022/06/01 01:54:49;;;;;;;2.75;0.93;;;;;;;21.69;41.91;101030.06;5046401;28;20481;-37
2022/06/01 01:57:39;;;;;;;0.82;0.82;;;;;;;21.69;42.19;101024.81;5052790;28;20105;-39
2022/06/01 02:00:18;;;;;;;1.45;0.77;;;;;;;21.68;41.80;101025.69;5067630;28;20057;-40
2022/06/01 02:02:51;;;;;;;0.60;0.60;;;;;;;21.68;41.86;101023.97;5049020;28;20029;-39
2022/06/01 02:08:36;;;;;;;0.77;0.77;;;;;;;21.68;41.88;101028.31;5047314;28;20036;-37
2022/06/01 02:14:19;;;;;;;1.38;0.70;;;;;;;21.68;41.99;101029.22;5051494;28;20319;-37
2022/06/01 02:16:56;;;;;;;0.60;0.60;;;;;;;21.68;42.23;101028.31;5052747;28;20535;-40
2022/06/01 02:19:29;;;;;;;1.38;1.02;;;;;;;21.68;41.99;101028.31;5047699;28;20036;-37
2022/06/01 02:21:55;;;;;;;0.70;0.70;;;;;;;21.68;41.85;101028.31;5028848;28;20063;-39
2022/06/01 02:24:22;;;;;;;0.75;0.75;;;;;;;21.67;41.94;101022.22;5047557;28;20034;-39
2022/06/01 02:26:49;;;;;;;0.70;0.70;;;;;;;21.67;41.77;101023.94;5026609;28;20032;-39
2022/06/01 02:29:19;;;;;;;0.50;0.50;;;;;;;21.68;41.88;101023.06;5068261;28;20466;-37
2022/06/01 02:31:45;;;;;;;0.70;0.70;;;;;;;21.68;42.25;101023.06;5052605;28;20071;-37
2022/06/01 02:34:11;;;;;;;0.88;0.88;;;;;;;21.67;41.79;101026.56;5078059;22;20127;-39
2022/06/01 02:36:41;;;;;;;1.80;1.10;;;;;;;21.67;42.12;101027.44;5028654;28;20032;-37
2022/06/01 02:39:09;;;;;;;0.50;0.50;;;;;;;21.67;42.06;101026.56;5028073;28;20047;-37
2022/06/01 02:44:19;;;;;;;0.50;0.50;;;;;;;21.67;41.85;101026.56;5066108;28;20527;-37
2022/06/01 02:46:45;;;;;;;1.20;0.70;;;;;;;21.66;42.07;101022.19;5026641;28;20255;-38
2022/06/01 02:49:11;;;;;;;0.60;0.60;;;;;;;21.66;41.70;101019.56;5049904;28;20425;-37
2022/06/01 02:51:36;;;;;;;0.63;0.60;;;;;;;21.65;41.89;101023.94;5021339;28;20090;-37
2022/06/01 02:54:02;;;;;;;1.63;0.73;;;;;;;21.66;41.79;101025.69;5044789;28;20043;-38
2022/06/01 02:56:28;;;;;;;0.73;0.73;;;;;;;21.67;42.08;101031.78;5040410;28;20083;-37
2022/06/01 02:58:54;;;;;;;0.70;0.63;;;;;;;21.66;41.75;101035.28;5050747;28;20032;-38
2022/06/01 03:01:19;;;;;;;1.35;1.05;;;;;;;21.66;42.30;101024.81;5044706;28;20428;-39
2022/06/01 03:03:44;;;;;;;0.60;0.60;;;;;;;21.64;41.97;101026.53;5045773;28;20102;-37
2022/06/01 03:06:10;;;;;;;0.50;0.50;;;;;;;21.67;42.04;101026.56;5034461;28;20029;-37
2022/06/01 03:08:35;;;;;;;0.77;0.77;;;;;;;21.66;42.13;101024.81;5028140;28;20033;-38
2022/06/01 03:11:01;;;;;;;3.25;0.65;;;;;;;21.64;41.93;101026.53;5039598;28;20056;-38
2022/06/01 03:13:26;;;;;;;0.93;0.93;;;;;;;21.66;41.99;101019.56;5061530;28;20025;-38
2022/06/01 03:15:52;;;;;;;0.68;0.65;;;;;;;21.66;41.84;101019.56;5046807;28;20033;-39
2022/06/01 03:18:18;;;;;;;0.75;0.75;;;;;;;21.66;41.97;101014.31;5026162;28;20029;-39
2022/06/01 03:20:43;;;;;;;0.68;0.68;;;;;;;21.65;41.97;101017.81;5025961;28;20040;-43
2022/06/01 03:23:09;;;;;;;1.63;0.73;;;;;;;21.66;41.87;101014.31;5037804;28;20119;-38
2022/06/01 03:25:37;;;;;;;1.00;1.00;;;;;;;21.66;42.18;101014.31;5063484;28;20385;-37
2022/06/01 03:28:03;;;;;;;0.80;0.80;;;;;;;21.66;42.03;101006.44;5044134;28;20044;-38
2022/06/01 03:30:29;;;;;;;0.63;0.63;;;;;;;21.65;41.86;101007.31;5033356;28;20036;-37
2022/06/01 03:32:54;;;;;;;0.70;0.70;;;;;;;21.65;42.09;101010.84;5042779;28;20096;-37
2022/06/01 03:35:23;;;;;;;0.63;0.63;;;;;;;21.66;41.68;101001.22;5049816;28;20425;-40
2022/06/01 03:37:48;;;;;;;0.77;0.77;;;;;;;21.65;42.24;101012.56;5028179;28;20036;-40
2022/06/01 03:40:16;;;;;;;0.50;0.50;;;;;;;21.66;42.08;101009.06;5029389;28;20032;-38
2022/06/01 03:42:42;;;;;;;0.70;0.60;;;;;;;21.66;41.70;101014.31;5026267;28;20032;-38
2022/06/01 03:47:51;;;;;;;1.02;0.77;;;;;;;21.66;41.90;101011.69;5068360;28;20040;-39
2022/06/01 03:50:17;;;;;;;0.68;0.68;;;;;;;21.66;41.84;101003.84;5062233;28;20028;-38
2022/06/01 03:52:45;;;;;;;0.63;0.63;;;;;;;21.65;41.97;101007.31;5037712;28;20477;-39
2022/06/01 03:55:11;;;;;;;0.70;0.70;;;;;;;21.66;41.48;101009.97;5043957;28;20473;-39
2022/06/01 03:57:37;;;;;;;2.40;0.77;;;;;;;21.66;41.89;101009.97;5021249;28;20090;-39
2022/06/01 04:00:04;;;;;;;0.60;0.60;;;;;;;21.67;41.74;101005.59;5059705;28;20017;-39
2022/06/01 04:02:29;;;;;;;1.17;0.80;;;;;;;21.66;42.09;101006.44;5056502;28;20508;-38
2022/06/01 04:04:55;;;;;;;0.80;0.80;;;;;;;21.67;41.58;101010.84;5075283;28;20056;-40
2022/06/01 04:07:20;;;;;;;0.70;0.70;;;;;;;21.67;42.10;101016.06;5045035;28;20040;-39
2022/06/01 04:09:45;;;;;;;0.57;0.57;;;;;;;21.68;41.57;101002.09;5036771;28;20044;-38
2022/06/01 04:12:11;;;;;;;0.80;0.80;;;;;;;21.71;41.85;101015.22;5049480;28;20055;-40
2022/06/01 04:14:36;;;;;;;0.57;0.57;;;;;;;21.70;42.11;101005.63;5056679;28;20063;-38
2022/06/01 04:17:01;;;;;;;0.77;0.77;;;;;;;21.70;42.07;101008.22;5028203;28;20062;-39
2022/06/01 04:19:27;;;;;;;0.77;0.70;;;;;;;21.71;41.59;101002.13;5044823;28;20040;-38
2022/06/01 04:21:53;;;;;;;0.70;0.70;;;;;;;21.69;41.63;101010.00;5063602;28;20028;-38
2022/06/01 04:24:24;;;;;;;0.63;0.55;;;;;;;21.69;41.80;101004.75;5041822;28;20028;-39
2022/06/01 04:26:49;;;;;;;1.40;0.40;;;;;;;21.70;41.65;101005.63;5046807;28;20033;-38
2022/06/01 04:29:15;;;;;;;0.85;0.80;;;;;;;21.69;41.93;101010.00;5040794;28;20503;-38
2022/06/01 04:31:41;;;;;;;0.47;0.47;;;;;;;21.69;42.07;101009.09;5065495;28;20043;-38
2022/06/01 04:34:06;;;;;;;0.50;0.50;;;;;;;21.70;41.80;101005.63;5021142;28;20037;-38
2022/06/01 04:36:31;;;;;;;1.70;0.90;;;;;;;21.69;41.66;101011.72;5039744;28;20119;-42
2022/06/01 04:38:57;;;;;;;0.60;0.60;;;;;;;21.69;41.87;101009.09;5024065;28;20055;-39
2022/06/01 04:41:22;;;;;;;0.60;0.60;;;;;;;21.68;41.58;101009.97;5048469;28;20093;-39
2022/06/01 04:43:47;;;;;;;0.60;0.60;;;;;;;21.68;41.82;101008.25;5064971;28;20041;-40
2022/06/01 04:46:13;;;;;;;0.93;0.85;;;;;;;21.69;41.98;101009.09;5039108;28;20039;-39
2022/06/01 04:48:38;;;;;;;0.60;0.60;;;;;;;21.69;41.92;101014.34;5048738;28;20115;-39
2022/06/01 04:51:03;;;;;;;0.60;0.60;;;;;;;21.69;41.69;101019.59;5052747;28;20497;-38
2022/06/01 04:53:29;;;;;;;1.65;0.75;;;;;;;21.69;42.01;101019.59;5073306;28;20409;-38
2022/06/01 04:55:54;;;;;;;0.60;0.60;;;;;;;21.68;42.00;101017.81;5060064;28;20079;-38
2022/06/01 04:58:20;;;;;;;0.70;0.70;;;;;;;21.68;41.68;101015.22;5063008;28;20060;-38
2022/06/01 05:00:45;;;;;;;0.60;0.60;;;;;;;21.67;41.71;101016.97;5034342;28;20037;-38
2022/06/01 05:03:11;;;;;;;0.75;0.75;;;;;;;21.67;41.69;101026.56;5023823;28;20032;-38
2022/06/01 05:05:39;;;;;;;0.57;0.57;;;;;;;21.68;41.91;101028.31;5046854;28;20036;-38
2022/06/01 05:08:08;;;;;;;0.63;0.63;;;;;;;21.67;41.68;101022.22;5039147;28;20047;-38
2022/06/01 05:10:34;;;;;;;0.60;0.60;;;;;;;21.67;41.82;101026.56;5048545;28;20025;-38
2022/06/01 05:13:00;;;;;;;0.57;0.57;;;;;;;21.68;41.78;101030.94;5037692;28;20139;-39
2022/06/01 05:15:25;;;;;;;6.43;0.82;;;;;;;21.67;41.86;101031.78;5033030;28;20418;-38
2022/06/01 05:17:51;;;;;;;0.80;0.80;;;;;;;21.67;41.92;101029.19;5041592;28;20118;-41
2022/06/01 05:20:18;;;;;;;0.60;0.60;;;;;;;21.67;41.85;101037.03;5050532;28;20043;-38
2022/06/01 05:22:43;;;;;;;0.60;0.50;;;;;;;21.67;41.67;101043.19;5051681;28;20078;-39
2022/06/01 05:25:09;;;;;;;0.73;0.70;;;;;;;21.67;41.77;101047.53;5035823;28;20272;-40
2022/06/01 05:27:35;;;;;;;0.60;0.60;;;;;;;21.67;41.77;101052.78;5047676;28;20431;-39
2022/06/01 05:30:00;;;;;;;0.63;0.63;;;;;;;21.67;41.81;101047.53;5045171;28;20036;-37
2022/06/01 05:32:26;;;;;;;0.45;0.45;;;;;;;21.67;42.24;101060.63;5028191;28;20072;-38
2022/06/01 05:34:51;;;;;;;1.38;1.00;;;;;;;21.66;41.96;101061.50;5044961;28;20039;-38
2022/06/01 05:37:17;;;;;;;0.73;0.73;;;;;;;21.65;41.88;101071.13;5054253;28;20035;-39
2022/06/01 05:39:42;;;;;;;0.60;0.60;;;;;;;21.66;42.09;101071.97;5023073;28;20031;-38
2022/06/01 05:42:08;;;;;;;0.85;0.70;;;;;;;21.65;41.74;101070.22;5055707;28;20111;-38
2022/06/01 05:44:33;;;;;;;0.68;0.68;;;;;;;21.65;41.99;101070.22;5038829;28;20040;-40
2022/06/01 05:47:00;;;;;;;0.40;0.40;;;;;;;21.65;41.75;101070.22;5038888;28;20042;-42
2022/06/01 05:49:26;;;;;;;0.60;0.60;;;;;;;21.65;41.93;101078.09;5043174;28;20127;-38
2022/06/01 05:51:52;;;;;;;0.90;0.90;;;;;;;21.65;41.90;101075.47;5037640;28;20107;-40
2022/06/01 05:54:19;;;;;;;0.60;0.60;;;;;;;21.65;42.02;101072.84;5031552;28;20033;-38
2022/06/01 05:56:44;;;;;;;0.88;0.88;;;;;;;21.64;41.62;101074.59;5054521;28;20047;-38
2022/06/01 05:59:09;;;;;;;0.98;0.68;;;;;;;21.64;41.81;101078.94;5050804;28;20104;-39
2022/06/01 06:01:35;;;;;;;0.50;0.50;;;;;;;21.64;42.13;101082.47;5041183;28;20033;-38
2022/06/01 06:04:00;;;;;;;0.65;0.63;;;;;;;21.65;41.91;101091.19;5063346;28;20033;-38
2022/06/01 06:06:25;;;;;;;0.80;0.80;;;;;;;21.62;42.02;101083.25;5066389;28;20453;-38
2022/06/01 06:08:59;;;;;;;1.00;0.60;;;;;;;21.64;42.06;101100.81;5047141;28;20528;-38
2022/06/01 06:11:26;;;;;;;0.50;0.50;;;;;;;21.64;41.88;101099.91;5027275;28;20036;-38
2022/06/01 06:13:52;;;;;;;0.60;0.60;;;;;;;21.63;42.16;101098.13;5050454;28;20334;-38
2022/06/01 06:16:17;;;;;;;0.73;0.73;;;;;;;21.64;42.08;101105.16;5053418;28;20408;-38
2022/06/01 06:18:43;;;;;;;0.57;0.57;;;;;;;21.65;41.84;101106.91;5034617;28;20033;-38
2022/06/01 06:21:08;;;;;;;0.55;0.55;;;;;;;21.64;41.83;101099.91;5033313;28;20383;-38
2022/06/01 06:23:34;;;;;;;0.93;0.93;;;;;;;21.64;41.79;101115.66;5038745;28;20422;-38
2022/06/01 06:26:00;;;;;;;0.80;0.80;;;;;;;21.64;42.26;101115.66;5026399;28;20031;-38
2022/06/01 06:28:25;;;;;;;0.80;0.70;;;;;;;21.64;41.65;101115.66;5049027;28;20036;-37
2022/06/01 06:30:51;;;;;;;0.63;0.63;;;;;;;21.64;41.72;101115.66;5032892;28;20029;-38
2022/06/01 06:33:17;;;;;;;0.70;0.70;;;;;;;21.63;41.72;101119.09;5032179;28;20116;-39
2022/06/01 06:35:43;;;;;;;0.70;0.70;;;;;;;21.63;42.21;101119.09;5035086;28;20056;-39
2022/06/01 06:38:08;;;;;;;0.82;0.82;;;;;;;21.63;41.90;101125.25;5054906;28;20052;-38
2022/06/01 06:40:33;;;;;;;0.70;0.70;;;;;;;21.63;42.11;101124.34;5065230;28;20397;-38
2022/06/01 06:42:59;;;;;;;1.00;0.93;;;;;;;21.64;41.84;101131.38;5046717;28;20041;-39
2022/06/01 06:45:24;;;;;;;0.70;0.70;;;;;;;21.63;42.04;101134.81;5058392;28;20044;-38
2022/06/01 06:47:50;;;;;;;0.80;0.77;;;;;;;21.63;41.89;101129.56;5037075;28;20062;-39
2022/06/01 06:50:17;;;;;;;1.15;0.60;;;;;;;21.63;42.21;101134.81;5030918;28;20533;-38
2022/06/01 06:52:43;;;;;;;0.98;0.95;;;;;;;21.63;41.81;101133.13;5036793;28;20041;-38
2022/06/01 06:55:09;;;;;;;0.63;0.63;;;;;;;21.62;42.21;101114.72;5024581;28;20024;-40
2022/06/01 06:57:35;;;;;;;0.57;0.50;;;;;;;21.63;42.39;101103.38;5048826;28;20522;-38
2022/06/01 07:00:00;;;;;;;0.90;0.90;;;;;;;21.62;42.34;101097.25;5043871;28;20040;-37
2022/06/01 07:02:26;;;;;;;1.08;0.80;;;;;;;21.63;42.02;101087.66;5033504;28;20464;-37
2022/06/01 07:04:51;;;;;;;1.10;1.00;;;;;;;21.63;41.78;101092.88;5044649;28;20043;-38
2022/06/01 07:07:17;;;;;;;0.80;0.80;;;;;;;21.63;42.10;101082.41;5046936;28;20685;-38
2022/06/01 07:09:43;;;;;;;2.05;0.77;;;;;;;21.61;42.11;101069.28;5044304;28;20059;-37
2022/06/01 07:12:10;;;;;;;0.65;0.65;;;;;;;21.63;42.38;101066.69;5025423;28;20032;-39
2022/06/01 07:14:35;;;;;;;1.08;0.73;;;;;;;21.63;42.14;101066.69;5046728;28;20033;-38
2022/06/01 07:17:01;;;;;;;0.85;0.80;;;;;;;21.64;41.88;101068.47;5035158;28;20029;-38
2022/06/01 07:19:27;;;;;;;0.65;0.65;;;;;;;21.62;41.73;101065.81;5046143;28;20032;-39
2022/06/01 07:21:53;;;;;;;0.70;0.70;;;;;;;21.64;42.31;101063.22;5048668;28;20039;-38
2022/06/01 07:24:18;;;;;;;0.88;0.88;;;;;;;21.64;42.09;101060.59;5045940;28;20362;-38
2022/06/01 07:26:44;;;;;;;2.83;0.77;;;;;;;21.65;42.16;101054.50;5032861;28;20465;-38
2022/06/01 07:29:10;;;;;;;1.27;0.98;;;;;;;21.65;41.87;101054.50;5064970;28;20074;-39
2022/06/01 07:31:36;;;;;;;0.82;0.82;;;;;;;21.66;42.07;101051.00;5036903;28;20036;-38
2022/06/01 07:34:01;;;;;;;0.63;0.63;;;;;;;21.66;41.94;101056.25;5018020;28;20400;-38
2022/06/01 07:36:28;;;;;;;0.90;0.90;;;;;;;21.66;42.15;101051.00;5033552;28;20037;-38
2022/06/01 07:44:34;;;;;;;0.65;0.65;;;;;;;21.67;42.41;101053.66;5049740;28;20071;-38
2022/06/01 07:47:00;;;;;;;0.70;0.65;;;;;;;21.66;41.99;101057.16;5033013;28;20021;-38
2022/06/01 07:49:26;;;;;;;2.03;0.90;;;;;;;21.68;42.37;101065.00;5044003;28;20025;-38
2022/06/01 07:51:51;;;;;;;0.60;0.60;;;;;;;21.67;41.91;101065.88;5033238;28;20033;-38
2022/06/01 07:54:17;;;;;;;0.77;0.75;;;;;;;21.66;41.92;101059.78;5034391;28;20112;-38
2022/06/01 07:56:42;;;;;;;0.70;0.70;;;;;;;21.66;42.12;101056.25;5048070;28;20029;-38
2022/06/01 07:59:08;;;;;;;0.70;0.70;;;;;;;21.68;42.00;101065.00;5028839;28;20024;-37
2022/06/01 08:01:34;;;;;;;1.60;1.30;;;;;;;21.67;42.05;101068.50;5033959;28;20024;-38
2022/06/01 08:04:02;;;;;;;1.02;0.95;;;;;;;21.67;42.33;101064.16;5036261;28;20052;-39
2022/06/01 08:06:28;;;;;;;1.55;1.02;;;;;;;21.67;42.20;101069.41;5066599;28;20465;-38
2022/06/01 08:08:57;;;;;;;0.80;0.80;;;;;;;21.67;42.07;101073.75;5051357;28;20033;-38
2022/06/01 08:13:06;;;;;;;0.60;0.60;;;;;;;21.68;42.44;101075.50;5049927;28;20545;-38
2022/06/01 08:14:09;;;;;;;0.73;0.73;;;;;;;21.69;42.23;101077.25;5056484;28;20063;-42
2022/06/01 08:16:35;;;;;;;1.33;1.10;;;;;;;21.69;42.24;101078.16;5048978;28;20392;-37
2022/06/01 08:19:00;;;;;;;0.45;0.45;;;;;;;21.69;42.53;101074.63;5044864;28;20033;-38
2022/06/01 08:21:26;;;;;;;1.15;1.05;;;;;;;21.69;42.13;101077.25;5051331;28;20036;-38
2022/06/01 08:23:51;;;;;;;1.08;0.70;;;;;;;21.70;42.31;101089.50;5063465;28;20033;-38
2022/06/01 08:26:17;;;;;;;1.00;1.00;;;;;;;21.70;42.13;101090.41;5028598;28;20044;-38
2022/06/01 08:28:42;;;;;;;1.00;0.90;;;;;;;21.69;42.95;101088.63;5047475;28;20043;-37
2022/06/01 08:31:07;;;;;;;0.70;0.70;;;;;;;21.71;42.28;101092.16;5050266;28;20040;-38
2022/06/01 08:36:01;;;;;;;0.88;0.88;;;;;;;21.72;42.42;101093.00;5076788;22;20048;-46
2022/06/01 08:38:27;;;;;;;1.05;1.05;;;;;;;21.73;42.60;101100.00;5050811;28;20035;-43
2022/06/01 08:40:58;;;;;;;2.00;1.02;;;;;;;21.73;42.36;101100.00;5042824;28;20125;-44
2022/06/01 08:43:26;;;;;;;1.13;1.02;;;;;;;21.75;42.67;101106.19;5049608;28;20024;-43
2022/06/01 08:45:56;;;;;;;0.90;0.88;;;;;;;21.76;42.60;101105.31;5050875;28;20119;-42
2022/06/01 08:48:30;;;;;;;0.75;0.75;;;;;;;21.76;42.54;101105.31;5071159;28;20045;-45
2022/06/01 08:50:56;;;;;;;1.40;0.85;;;;;;;21.77;42.94;101099.22;5063009;28;20128;-44
2022/06/01 08:53:22;;;;;;;0.73;0.73;;;;;;;21.77;42.51;101107.06;5049006;28;20115;-42
2022/06/01 08:55:51;;;;;;;0.70;0.70;;;;;;;21.79;42.59;101105.34;5033657;28;20085;-43
2022/06/01 08:58:20;;;;;;;0.80;0.80;;;;;;;21.78;42.80;101103.59;5050705;28;20024;-42
2022/06/01 09:00:52;;;;;;;0.80;0.80;;;;;;;21.78;42.63;101108.84;5038344;28;20059;-43
2022/06/01 09:03:26;;;;;;;1.40;0.95;;;;;;;21.79;42.89;101105.34;5039704;28;20357;-46
2022/06/01 09:05:59;;;;;;;0.90;0.90;;;;;;;21.80;42.87;101106.22;5068825;28;20036;-44
2022/06/01 09:08:43;;;;;;;0.93;0.93;;;;;;;21.81;42.85;101114.09;5054816;28;20492;-41
2022/06/01 09:11:11;;;;;;;0.70;0.70;;;;;;;21.81;42.69;101108.88;5056724;28;20024;-44
2022/06/01 09:13:43;;;;;;;0.77;0.77;;;;;;;21.81;42.68;101106.25;5052811;28;20469;-41
2022/06/01 09:16:17;;;;;;;5.05;0.75;;;;;;;21.82;42.59;101105.38;5066904;28;20100;-42
2022/06/01 09:18:52;;;;;;;2.63;0.95;;;;;;;21.83;42.91;101101.91;5056063;28;20103;-43
2022/06/01 09:24:28;;;;;;;2.72;1.27;;;;;;;21.87;42.70;101108.94;5059118;28;20062;-42
2022/06/01 09:27:00;;;;;;;0.98;0.98;;;;;;;21.89;42.83;101112.44;5062861;28;20040;-44
2022/06/01 09:29:28;;;;;;;0.85;0.80;;;;;;;21.90;42.56;101113.31;5037493;28;20583;-42
2022/06/01 09:32:05;;;;;;;2.70;0.90;;;;;;;21.92;42.74;101115.97;5034160;28;20041;-44
2022/06/01 09:34:44;;;;;;;0.90;0.90;;;;;;;21.88;42.73;101109.78;5065298;28;20050;-42
2022/06/01 09:37:26;;;;;;;0.60;0.60;;;;;;;21.93;42.70;101115.09;5049047;28;20032;-42
2022/06/01 09:39:59;;;;;;;0.93;0.93;;;;;;;21.93;42.70;101122.97;5061529;28;20036;-42
2022/06/01 09:42:37;;;;;;;0.80;0.80;;;;;;;21.93;42.56;101122.97;5046571;28;20036;-44
2022/06/01 09:45:15;;;;;;;1.15;1.10;;;;;;;21.91;42.65;101125.56;5066434;28;20028;-44
2022/06/01 09:47:43;;;;;;;2.58;1.17;;;;;;;21.89;42.83;101128.19;5063980;28;20033;-44
2022/06/01 09:50:24;;;;;;;1.42;1.15;;;;;;;21.89;42.92;101122.94;5058273;28;20033;-44
2022/06/01 09:52:52;;;;;;;0.70;0.70;;;;;;;21.88;42.70;101121.16;5061119;28;20044;-43
2022/06/01 09:55:23;;;;;;;1.00;1.00;;;;;;;21.89;42.89;101120.31;5052060;28;20186;-44
2022/06/01 09:58:06;;;;;;;1.05;1.02;;;;;;;21.91;42.79;101125.56;5070598;28;20202;-44
2022/06/01 10:06:18;;;;;;;1.05;1.05;;;;;;;21.92;42.71;101126.44;5063717;28;20441;-46
2022/06/01 10:09:14;;;;;;;1.15;0.90;;;;;;;21.93;42.64;101122.97;5057520;28;20043;-44
2022/06/01 10:11:46;;;;;;;1.65;0.80;;;;;;;21.94;42.50;101122.09;5057498;28;20405;-44
2022/06/01 10:14:27;;;;;;;6.82;1.20;;;;;;;21.95;42.78;101111.59;5050395;28;20082;-45
2022/06/01 10:17:17;;;;;;;4.20;1.17;;;;;;;21.97;42.73;101114.25;5063358;28;20098;-43
2022/06/01 10:20:04;;;;;;;1.40;1.10;;;;;;;21.99;42.64;101117.78;5065011;28;20411;-43
2022/06/01 10:22:36;;;;;;;1.10;1.00;;;;;;;21.99;42.78;101110.78;5064250;28;20078;-46
2022/06/01 10:25:21;;;;;;;2.67;1.00;;;;;;;22.01;42.69;101110.78;5059620;28;20032;-44
2022/06/01 10:28:06;;;;;;;;;;;;;;;22.04;42.80;101113.44;5048970;28;20128;-41
2022/06/01 10:30:38;;;;;;;6.37;4.13;;;;;;;22.04;43.32;101110.81;5053014;28;20384;-44
2022/06/01 10:33:10;;;;;;;1.98;1.70;;;;;;;21.51;41.29;101102.38;5062183;28;20110;-45
2022/06/01 10:35:45;;;;;;;1.60;1.50;;;;;;;20.98;41.79;101108.69;5066245;28;20149;-43
2022/06/01 10:38:20;;;;;;;5.28;1.92;;;;;;;20.63;41.45;101112.53;5064640;28;20500;-44
2022/06/01 10:41:05;;;;;;;1.67;1.55;;;;;;;20.99;41.91;101092.13;5062362;28;20477;-42
2022/06/01 10:43:47;;;;;;;4.80;1.55;;;;;;;21.33;41.42;101095.19;5039756;28;20052;-42
2022/06/01 10:46:49;;;;;;;4.07;1.45;;;;;;;21.56;42.05;101092.81;5065838;28;20056;-43
2022/06/01 10:49:40;;;;;;;2.08;1.45;;;;;;;21.71;41.69;101080.78;5067518;28;20541;-44
2022/06/01 10:52:20;;;;;;;1.02;1.02;;;;;;;21.79;41.79;101084.38;5063584;28;20075;-42
2022/06/01 10:55:15;;;;;;;1.15;1.05;;;;;;;21.83;41.75;101075.69;5044156;28;20028;-42
2022/06/01 10:57:43;;;;;;;1.08;1.02;;;;;;;21.91;41.96;101082.72;5048797;28;20032;-47
2022/06/01 11:00:13;;;;;;;1.10;1.00;;;;;;;21.93;41.71;101075.75;5054096;28;20511;-42
2022/06/01 11:02:50;;;;;;;0.80;0.80;;;;;;;21.96;41.68;101071.41;5059199;28;20245;-42
2022/06/01 11:05:57;;;;;;;1.02;1.00;;;;;;;21.98;41.54;101063.56;5049890;28;20512;-43
2022/06/01 11:08:29;;;;;;;1.45;1.35;;;;;;;22.01;41.77;101063.59;5032854;28;20045;-43
2022/06/01 11:11:18;;;;;;;1.10;1.00;;;;;;;22.00;41.70;101064.47;5050048;28;20037;-42
2022/06/01 11:13:55;;;;;;;2.60;1.17;;;;;;;22.00;41.58;101067.06;5070608;28;20602;-46
2022/06/01 11:16:31;;;;;;;1.30;1.20;;;;;;;21.99;41.83;101065.31;5051064;28;20119;-45
2022/06/01 11:19:02;;;;;;;2.28;2.08;;;;;;;21.98;41.61;101059.19;5065280;28;20040;-45
2022/06/01 11:21:45;;;;;;;4.35;3.92;;;;;;;21.98;41.77;101063.56;5064957;28;20108;-42
2022/06/01 11:24:49;;;;;;;17.92;4.93;;;;;;;21.96;42.26;101060.06;5065145;28;20103;-44
2022/06/01 11:27:17;;;;;;;11.57;4.43;;;;;;;22.01;41.94;101058.34;5062196;28;20082;-43
2022/06/01 11:30:01;;;;;;;10.73;4.70;;;;;;;22.06;42.14;101061.88;5069242;28;20103;-42
2022/06/01 11:32:36;;;;;;;36.10;6.57;;;;;;;22.05;41.61;101062.75;5034116;28;20029;-46
2022/06/01 11:35:14;;;;;;;15.32;6.63;;;;;;;22.06;41.97;101056.63;5037612;28;20081;-42
2022/06/01 11:37:48;;;;;;;7.75;5.05;;;;;;;22.13;42.64;101057.53;5037325;28;20482;-45
2022/06/01 11:40:18;;;;;;;17.58;7.07;;;;;;;22.13;42.33;101053.19;5035535;28;20074;-43
2022/06/01 11:42:54;;;;;;;9.95;5.40;;;;;;;22.14;42.49;101059.31;5045040;28;20047;-43
2022/06/01 11:45:43;;;;;;;14.25;5.70;;;;;;;22.11;42.35;101060.19;5047945;28;20377;-44
2022/06/01 11:48:11;;;;;;;12.35;5.25;;;;;;;22.11;42.61;101064.53;5062541;28;20032;-46
2022/06/01 11:50:55;;;;;;;23.95;6.38;;;;;;;22.10;42.57;101063.66;5035591;28;20028;-42
2022/06/01 11:53:42;;;;;;;9.85;5.53;;;;;;;22.10;42.42;101068.91;5068511;28;20040;-43
2022/06/01 11:56:23;;;;;;;12.73;6.43;;;;;;;22.08;42.61;101065.41;5065894;28;20043;-43
2022/06/01 11:59:27;;;;;;;19.80;5.68;;;;;;;22.09;42.71;101072.41;5044198;28;20033;-41
2022/06/01 12:02:13;;;;;;;17.95;5.53;;;;;;;22.12;42.50;101069.81;5048109;28;20033;-46
2022/06/01 12:04:38;;;;;;;14.02;5.50;;;;;;;22.14;42.67;101065.44;5068203;28;20025;-43
2022/06/01 12:07:05;;;;;;;13.27;5.60;;;;;;;22.13;42.73;101063.69;5049317;28;20697;-42